createdAt,value
2019-01-20T00:00:25.567Z,-4.31
2019-01-20T00:01:25.477Z,-4.25
2019-01-20T00:02:25.388Z,-4.31
2019-01-20T00:03:25.297Z,-4.25
2019-01-20T00:04:25.207Z,-4.29
2019-01-20T00:05:25.122Z,-4.45
2019-01-20T00:06:25.029Z,-4.36
2019-01-20T00:07:24.941Z,-4.43
2019-01-20T00:08:24.849Z,-4.45
2019-01-20T00:09:24.760Z,-4.45
2019-01-20T00:10:24.670Z,-4.37
2019-01-20T00:11:24.581Z,-4.36
2019-01-20T00:12:24.491Z,-4.35
2019-01-20T00:13:24.402Z,-4.36
2019-01-20T00:14:24.311Z,-4.37
2019-01-20T00:15:24.222Z,-4.45
2019-01-20T00:16:24.132Z,-4.43
2019-01-20T00:17:24.043Z,-4.46
2019-01-20T00:18:23.953Z,-4.43
2019-01-20T00:19:23.864Z,-4.42
2019-01-20T00:20:23.799Z,-4.45
2019-01-20T00:21:23.685Z,-4.47
2019-01-20T00:22:23.595Z,-4.29
2019-01-20T00:23:23.507Z,-4.45
2019-01-20T00:24:23.416Z,-4.47
2019-01-20T00:25:23.326Z,-4.40
2019-01-20T00:26:23.242Z,-4.47
2019-01-20T00:27:23.147Z,-4.39
2019-01-20T00:28:23.057Z,-4.39
2019-01-20T00:29:22.968Z,-4.37
2019-01-20T00:30:22.879Z,-4.43
2019-01-20T00:31:22.790Z,-4.43
2019-01-20T00:32:22.700Z,-4.43
2019-01-20T00:33:22.610Z,-4.37
2019-01-20T00:34:22.637Z,-4.24
2019-01-20T00:35:22.431Z,-4.24
2019-01-20T00:36:22.341Z,-4.17
2019-01-20T00:37:22.250Z,-3.96
2019-01-20T00:38:22.162Z,-4.07
2019-01-20T00:39:22.073Z,-4.07
2019-01-20T00:40:21.983Z,-4.15
2019-01-20T00:41:24.393Z,-4.04
2019-01-20T00:42:21.805Z,-4.18
2019-01-20T00:43:21.716Z,-4.18
2019-01-20T00:44:21.628Z,-4.28
2019-01-20T00:45:21.536Z,-4.25
2019-01-20T00:46:21.447Z,-4.37
2019-01-20T00:47:21.406Z,-4.39
2019-01-20T00:48:21.267Z,-4.33
2019-01-20T00:49:21.178Z,-4.35
2019-01-20T00:50:21.089Z,-4.35
2019-01-20T00:51:21.000Z,-4.28
2019-01-20T00:52:20.911Z,-4.37
2019-01-20T00:53:20.818Z,-4.40
2019-01-20T00:54:20.732Z,-4.42
2019-01-20T00:55:20.642Z,-4.46
2019-01-20T00:56:20.550Z,-4.43
2019-01-20T00:57:20.461Z,-4.46
2019-01-20T00:58:20.373Z,-4.63
2019-01-20T00:59:20.283Z,-4.71
2019-01-20T01:00:20.193Z,-4.65
2019-01-20T01:01:20.104Z,-4.71
2019-01-20T01:02:20.014Z,-4.71
2019-01-20T01:03:19.924Z,-4.71
2019-01-20T01:04:19.835Z,-4.82
2019-01-20T01:05:19.750Z,-4.78
2019-01-20T01:06:19.657Z,-4.90
2019-01-20T01:07:19.565Z,-4.89
2019-01-20T01:08:19.476Z,-4.90
2019-01-20T01:09:19.385Z,-4.92
2019-01-20T01:10:19.301Z,-4.99
2019-01-20T01:11:19.207Z,-5.06
2019-01-20T01:12:19.116Z,-5.03
2019-01-20T01:13:19.029Z,-5.03
2019-01-20T01:14:18.939Z,-5.16
2019-01-20T01:15:18.849Z,-5.13
2019-01-20T01:16:18.756Z,-5.06
2019-01-20T01:17:18.669Z,-5.06
2019-01-20T01:18:18.576Z,-5.22
2019-01-20T01:19:18.487Z,-5.19
2019-01-20T01:20:18.399Z,-5.21
2019-01-20T01:21:18.308Z,-5.08
2019-01-20T01:22:18.218Z,-5.14
2019-01-20T01:23:18.127Z,-5.21
2019-01-20T01:24:18.037Z,-5.16
2019-01-20T01:25:17.947Z,-5.10
2019-01-20T01:26:17.856Z,-5.13
2019-01-20T01:27:17.767Z,-5.13
2019-01-20T01:28:17.675Z,-5.11
2019-01-20T01:29:17.685Z,-5.16
2019-01-20T01:30:17.497Z,-5.13
2019-01-20T01:31:17.406Z,-5.16
2019-01-20T01:32:17.316Z,-5.32
2019-01-20T01:33:17.276Z,-5.22
2019-01-20T01:34:17.138Z,-5.30
2019-01-20T01:35:17.044Z,-5.27
2019-01-20T01:36:16.954Z,-5.19
2019-01-20T01:37:16.865Z,-5.21
2019-01-20T01:38:16.775Z,-5.32
2019-01-20T01:39:16.684Z,-5.33
2019-01-20T01:40:16.596Z,-5.32
2019-01-20T01:41:16.503Z,-5.29
2019-01-20T01:42:16.414Z,-5.40
2019-01-20T01:43:16.327Z,-5.36
2019-01-20T01:44:16.233Z,-5.34
2019-01-20T01:45:16.143Z,-5.40
2019-01-20T01:46:16.053Z,-5.32
2019-01-20T01:47:15.964Z,-5.19
2019-01-20T01:48:15.872Z,-5.29
2019-01-20T01:49:15.783Z,-5.29
2019-01-20T01:50:15.694Z,-5.18
2019-01-20T01:51:15.602Z,-5.32
2019-01-20T01:52:15.511Z,-5.33
2019-01-20T01:53:15.422Z,-5.33
2019-01-20T01:54:15.381Z,-5.29
2019-01-20T01:55:15.243Z,-5.30
2019-01-20T01:56:15.150Z,-5.36
2019-01-20T01:57:15.060Z,-5.34
2019-01-20T01:58:14.970Z,-5.30
2019-01-20T01:59:14.878Z,-5.36
2019-01-20T02:00:14.788Z,-5.36
2019-01-20T02:01:14.697Z,-5.30
2019-01-20T02:02:14.607Z,-5.23
2019-01-20T02:03:14.518Z,-5.32
2019-01-20T02:04:14.427Z,-5.21
2019-01-20T02:05:14.336Z,-4.96
2019-01-20T02:06:14.248Z,-5.02
2019-01-20T02:07:14.157Z,-5.00
2019-01-20T02:08:14.065Z,-5.08
2019-01-20T02:09:13.975Z,-5.14
2019-01-20T02:10:13.886Z,-5.21
2019-01-20T02:11:13.796Z,-5.29
2019-01-20T02:12:13.708Z,-5.34
2019-01-20T02:13:13.617Z,-5.29
2019-01-20T02:14:13.525Z,-5.19
2019-01-20T02:15:13.434Z,-5.25
2019-01-20T02:16:13.343Z,-5.19
2019-01-20T02:17:13.254Z,-5.18
2019-01-20T02:18:13.163Z,-5.29
2019-01-20T02:19:13.073Z,-5.32
2019-01-20T02:20:12.982Z,-5.29
2019-01-20T02:21:12.892Z,-5.25
2019-01-20T02:22:12.803Z,-5.22
2019-01-20T02:23:12.716Z,-5.22
2019-01-20T02:24:12.620Z,-5.22
2019-01-20T02:25:12.531Z,-5.06
2019-01-20T02:26:12.441Z,-5.08
2019-01-20T02:27:12.353Z,-5.19
2019-01-20T02:28:12.260Z,-5.18
2019-01-20T02:29:12.170Z,-5.14
2019-01-20T02:30:12.085Z,-5.14
2019-01-20T02:31:12.090Z,-5.18
2019-01-20T02:32:11.900Z,-5.18
2019-01-20T02:33:11.810Z,-5.22
2019-01-20T02:34:11.722Z,-5.25
2019-01-20T02:35:11.629Z,-5.29
2019-01-20T02:36:11.539Z,-5.33
2019-01-20T02:37:11.450Z,-5.37
2019-01-20T02:38:11.359Z,-5.43
2019-01-20T02:39:11.269Z,-5.47
2019-01-20T02:40:11.177Z,-5.33
2019-01-20T02:41:11.087Z,-5.34
2019-01-20T02:42:11.005Z,-5.39
2019-01-20T02:43:10.910Z,-5.39
2019-01-20T02:44:10.818Z,-5.37
2019-01-20T02:45:10.726Z,-5.32
2019-01-20T02:46:10.638Z,-5.33
2019-01-20T02:47:10.557Z,-5.34
2019-01-20T02:48:10.466Z,-5.34
2019-01-20T02:49:10.366Z,-5.34
2019-01-20T02:50:10.276Z,-5.37
2019-01-20T02:51:10.285Z,-5.37
2019-01-20T02:52:19.398Z,-5.47
2019-01-20T02:53:10.002Z,-5.34
2019-01-20T02:54:09.913Z,-5.44
2019-01-20T02:55:09.824Z,-5.34
2019-01-20T02:56:09.734Z,-5.39
2019-01-20T02:57:09.645Z,-5.39
2019-01-20T02:58:09.552Z,-5.32
2019-01-20T02:59:09.462Z,-5.33
2019-01-20T03:00:09.370Z,-5.34
2019-01-20T03:01:09.281Z,-5.33
2019-01-20T03:02:09.189Z,-5.23
2019-01-20T03:03:09.099Z,-5.25
2019-01-20T03:04:09.009Z,-5.32
2019-01-20T03:05:08.920Z,-5.25
2019-01-20T03:06:08.878Z,-5.14
2019-01-20T03:07:08.745Z,-5.33
2019-01-20T03:08:08.647Z,-5.25
2019-01-20T03:09:08.557Z,-5.32
2019-01-20T03:10:08.469Z,-5.32
2019-01-20T03:11:08.380Z,-5.32
2019-01-20T03:12:08.288Z,-5.37
2019-01-20T03:13:08.262Z,-5.34
2019-01-20T03:14:08.106Z,-5.42
2019-01-20T03:15:08.018Z,-5.50
2019-01-20T03:16:07.924Z,-5.44
2019-01-20T03:17:07.836Z,-5.34
2019-01-20T03:18:07.745Z,-5.48
2019-01-20T03:19:07.654Z,-5.37
2019-01-20T03:20:07.564Z,-5.44
2019-01-20T03:21:07.473Z,-5.44
2019-01-20T03:22:07.394Z,-5.44
2019-01-20T03:23:07.294Z,-5.43
2019-01-20T03:24:07.200Z,-5.47
2019-01-20T03:25:07.112Z,-5.48
2019-01-20T03:26:07.021Z,-5.52
2019-01-20T03:27:06.934Z,-5.52
2019-01-20T03:28:06.840Z,-5.43
2019-01-20T03:29:06.749Z,-5.55
2019-01-20T03:30:06.660Z,-5.57
2019-01-20T03:31:06.571Z,-5.60
2019-01-20T03:32:06.478Z,-5.47
2019-01-20T03:33:06.389Z,-5.60
2019-01-20T03:34:06.297Z,-5.55
2019-01-20T03:35:06.206Z,-5.62
2019-01-20T03:36:06.117Z,-5.65
2019-01-20T03:37:06.025Z,-5.57
2019-01-20T03:38:05.936Z,-5.62
2019-01-20T03:39:05.845Z,-5.57
2019-01-20T03:40:05.753Z,-5.60
2019-01-20T03:41:05.663Z,-5.62
2019-01-20T03:42:11.778Z,-5.61
2019-01-20T03:43:05.482Z,-5.58
2019-01-20T03:44:05.393Z,-5.51
2019-01-20T03:45:05.303Z,-5.48
2019-01-20T03:46:05.211Z,-5.54
2019-01-20T03:47:05.123Z,-5.44
2019-01-20T03:48:05.029Z,-5.48
2019-01-20T03:49:04.939Z,-5.55
2019-01-20T03:50:04.848Z,-5.55
2019-01-20T03:51:04.758Z,-5.47
2019-01-20T03:52:04.667Z,-5.48
2019-01-20T03:53:04.576Z,-5.52
2019-01-20T03:54:04.486Z,-5.52
2019-01-20T03:55:04.396Z,-5.65
2019-01-20T03:56:04.305Z,-5.62
2019-01-20T03:57:04.215Z,-5.66
2019-01-20T03:58:04.125Z,-5.60
2019-01-20T03:59:04.033Z,-5.60
2019-01-20T04:00:03.943Z,-5.66
2019-01-20T04:01:03.853Z,-5.61
2019-01-20T04:02:03.760Z,-5.50
2019-01-20T04:03:03.670Z,-5.51
2019-01-20T04:04:03.582Z,-5.51
2019-01-20T04:05:03.490Z,-5.47
2019-01-20T04:06:03.400Z,-5.50
2019-01-20T04:07:03.309Z,-5.47
2019-01-20T04:08:03.217Z,-5.47
2019-01-20T04:09:03.128Z,-5.52
2019-01-20T04:10:03.043Z,-5.55
2019-01-20T04:11:02.950Z,-5.61
2019-01-20T04:12:02.855Z,-5.71
2019-01-20T04:13:02.767Z,-5.71
2019-01-20T04:14:02.674Z,-5.62
2019-01-20T04:15:02.587Z,-5.61
2019-01-20T04:16:02.493Z,-5.61
2019-01-20T04:17:02.403Z,-5.60
2019-01-20T04:18:02.312Z,-5.71
2019-01-20T04:19:02.224Z,-5.69
2019-01-20T04:20:02.131Z,-5.71
2019-01-20T04:21:02.041Z,-5.60
2019-01-20T04:22:01.954Z,-5.55
2019-01-20T04:23:01.859Z,-5.50
2019-01-20T04:24:01.769Z,-5.62
2019-01-20T04:25:01.705Z,-5.55
2019-01-20T04:26:01.590Z,-5.54
2019-01-20T04:27:01.499Z,-5.48
2019-01-20T04:28:01.406Z,-5.51
2019-01-20T04:29:01.320Z,-5.54
2019-01-20T04:30:01.376Z,-5.44
2019-01-20T04:31:01.136Z,-5.47
2019-01-20T04:32:01.044Z,-5.40
2019-01-20T04:33:00.958Z,-5.40
2019-01-20T04:34:00.913Z,-5.43
2019-01-20T04:35:00.774Z,-5.52
2019-01-20T04:36:00.681Z,-5.52
2019-01-20T04:37:00.591Z,-5.54
2019-01-20T04:38:00.501Z,-5.55
2019-01-20T04:39:00.410Z,-5.50
2019-01-20T04:40:00.320Z,-5.54
2019-01-20T04:41:00.229Z,-5.65
2019-01-20T04:42:00.138Z,-5.60
2019-01-20T04:43:00.048Z,-5.66
2019-01-20T04:43:59.959Z,-5.65
2019-01-20T04:44:59.866Z,-5.68
2019-01-20T04:45:59.776Z,-5.60
2019-01-20T04:46:59.686Z,-5.69
2019-01-20T04:47:59.600Z,-5.61
2019-01-20T04:48:59.504Z,-5.58
2019-01-20T04:49:59.463Z,-5.58
2019-01-20T04:50:59.323Z,-5.60
2019-01-20T04:51:59.231Z,-5.60
2019-01-20T04:52:59.142Z,-5.60
2019-01-20T04:53:59.051Z,-5.66
2019-01-20T04:54:58.960Z,-5.54
2019-01-20T04:55:58.870Z,-5.52
2019-01-20T04:56:58.781Z,-5.55
2019-01-20T04:57:58.688Z,-5.58
2019-01-20T04:58:58.598Z,-5.57
2019-01-20T04:59:58.508Z,-5.50
2019-01-20T05:00:58.417Z,-5.60
2019-01-20T05:01:58.327Z,-5.52
2019-01-20T05:02:58.239Z,-5.54
2019-01-20T05:03:58.147Z,-5.47
2019-01-20T05:04:58.056Z,-5.55
2019-01-20T05:05:57.965Z,-5.60
2019-01-20T05:06:57.873Z,-5.58
2019-01-20T05:07:57.786Z,-5.71
2019-01-20T05:08:57.692Z,-5.62
2019-01-20T05:09:57.602Z,-5.60
2019-01-20T05:10:57.513Z,-5.66
2019-01-20T05:11:57.421Z,-5.66
2019-01-20T05:12:57.332Z,-5.68
2019-01-20T05:13:57.240Z,-5.65
2019-01-20T05:14:57.150Z,-5.72
2019-01-20T05:15:57.058Z,-5.72
2019-01-20T05:16:56.968Z,-5.75
2019-01-20T05:17:56.879Z,-5.72
2019-01-20T05:18:56.787Z,-5.72
2019-01-20T05:19:56.746Z,-5.73
2019-01-20T05:20:56.607Z,-5.81
2019-01-20T05:21:56.516Z,-5.72
2019-01-20T05:22:56.425Z,-5.73
2019-01-20T05:23:56.333Z,-5.69
2019-01-20T05:24:56.247Z,-5.65
2019-01-20T05:25:56.153Z,-5.71
2019-01-20T05:26:56.065Z,-5.61
2019-01-20T05:27:55.971Z,-5.61
2019-01-20T05:28:55.882Z,-5.62
2019-01-20T05:29:55.804Z,-5.66
2019-01-20T05:30:55.701Z,-5.62
2019-01-20T05:31:55.609Z,-5.71
2019-01-20T05:32:55.519Z,-5.69
2019-01-20T05:33:55.430Z,-5.72
2019-01-20T05:34:56.969Z,-5.72
2019-01-20T05:35:55.248Z,-5.81
2019-01-20T05:36:55.159Z,-5.84
2019-01-20T05:37:55.066Z,-5.78
2019-01-20T05:38:54.976Z,-5.81
2019-01-20T05:39:54.891Z,-5.76
2019-01-20T05:40:54.795Z,-5.72
2019-01-20T05:41:54.704Z,-5.71
2019-01-20T05:42:54.615Z,-5.73
2019-01-20T05:43:54.522Z,-5.68
2019-01-20T05:44:54.432Z,-5.62
2019-01-20T05:45:54.342Z,-5.60
2019-01-20T05:46:54.255Z,-5.61
2019-01-20T05:47:54.159Z,-5.62
2019-01-20T05:48:54.069Z,-5.52
2019-01-20T05:49:54.079Z,-5.57
2019-01-20T05:50:53.888Z,-5.51
2019-01-20T05:51:53.797Z,-5.48
2019-01-20T05:52:53.709Z,-5.34
2019-01-20T05:53:53.617Z,-5.40
2019-01-20T05:54:53.526Z,-5.47
2019-01-20T05:55:53.536Z,-5.43
2019-01-20T05:56:53.346Z,-5.51
2019-01-20T05:57:53.306Z,-5.40
2019-01-20T05:58:53.165Z,-5.51
2019-01-20T05:59:53.073Z,-5.52
2019-01-20T06:00:52.984Z,-5.68
2019-01-20T06:01:52.894Z,-5.71
2019-01-20T06:02:52.803Z,-5.71
2019-01-20T06:03:52.712Z,-5.60
2019-01-20T06:04:52.622Z,-5.60
2019-01-20T06:05:52.532Z,-5.57
2019-01-20T06:06:52.442Z,-5.62
2019-01-20T06:07:52.350Z,-5.66
2019-01-20T06:08:52.259Z,-5.79
2019-01-20T06:09:52.170Z,-5.75
2019-01-20T06:10:52.079Z,-5.83
2019-01-20T06:11:51.988Z,-5.84
2019-01-20T06:12:54.332Z,-5.79
2019-01-20T06:13:51.807Z,-5.86
2019-01-20T06:14:51.716Z,-5.79
2019-01-20T06:15:51.628Z,-5.83
2019-01-20T06:16:51.536Z,-5.73
2019-01-20T06:17:51.446Z,-5.75
2019-01-20T06:18:51.356Z,-5.83
2019-01-20T06:19:51.263Z,-5.75
2019-01-20T06:20:51.173Z,-5.73
2019-01-20T06:21:51.082Z,-5.76
2019-01-20T06:22:50.993Z,-5.79
2019-01-20T06:23:50.900Z,-5.89
2019-01-20T06:24:50.810Z,-5.73
2019-01-20T06:25:50.719Z,-5.83
2019-01-20T06:26:50.629Z,-5.73
2019-01-20T06:27:50.538Z,-5.71
2019-01-20T06:28:50.447Z,-5.81
2019-01-20T06:29:50.357Z,-5.84
2019-01-20T06:30:50.269Z,-5.79
2019-01-20T06:31:50.177Z,-5.89
2019-01-20T06:32:50.084Z,-5.76
2019-01-20T06:33:49.995Z,-5.89
2019-01-20T06:34:49.906Z,-5.79
2019-01-20T06:35:49.814Z,-5.84
2019-01-20T06:36:49.725Z,-5.81
2019-01-20T06:37:49.633Z,-5.78
2019-01-20T06:38:49.541Z,-5.69
2019-01-20T06:39:49.453Z,-5.62
2019-01-20T06:40:49.359Z,-5.60
2019-01-20T06:41:49.368Z,-5.72
2019-01-20T06:42:49.183Z,-5.62
2019-01-20T06:43:49.088Z,-5.75
2019-01-20T06:44:48.998Z,-5.81
2019-01-20T06:45:48.919Z,-5.72
2019-01-20T06:46:48.816Z,-5.73
2019-01-20T06:47:48.725Z,-5.78
2019-01-20T06:48:48.634Z,-5.79
2019-01-20T06:49:48.544Z,-5.73
2019-01-20T06:50:48.453Z,-5.93
2019-01-20T06:51:48.463Z,-5.96
2019-01-20T06:52:48.274Z,-5.93
2019-01-20T06:53:48.181Z,-5.97
2019-01-20T06:54:48.091Z,-5.93
2019-01-20T06:55:47.999Z,-5.91
2019-01-20T06:56:47.909Z,-6.00
2019-01-20T06:57:47.820Z,-5.97
2019-01-20T06:58:47.730Z,-6.07
2019-01-20T06:59:47.638Z,-6.07
2019-01-20T07:00:47.546Z,-6.07
2019-01-20T07:01:47.455Z,-6.12
2019-01-20T07:02:47.368Z,-6.12
2019-01-20T07:03:47.275Z,-6.17
2019-01-20T07:04:47.183Z,-6.04
2019-01-20T07:05:47.092Z,-6.05
2019-01-20T07:06:47.001Z,-5.99
2019-01-20T07:07:46.909Z,-5.97
2019-01-20T07:08:46.819Z,-5.97
2019-01-20T07:09:46.728Z,-6.04
2019-01-20T07:10:46.639Z,-6.14
2019-01-20T07:11:46.546Z,-6.07
2019-01-20T07:12:46.457Z,-6.04
2019-01-20T07:13:46.364Z,-6.00
2019-01-20T07:14:46.276Z,-5.99
2019-01-20T07:15:46.183Z,-5.99
2019-01-20T07:16:46.093Z,-5.93
2019-01-20T07:17:46.006Z,-5.86
2019-01-20T07:18:45.911Z,-5.94
2019-01-20T07:19:45.820Z,-5.89
2019-01-20T07:20:45.729Z,-5.87
2019-01-20T07:21:45.638Z,-5.76
2019-01-20T07:22:45.549Z,-5.86
2019-01-20T07:23:45.457Z,-5.78
2019-01-20T07:24:45.366Z,-5.86
2019-01-20T07:25:45.278Z,-5.84
2019-01-20T07:26:45.186Z,-5.94
2019-01-20T07:27:45.094Z,-5.93
2019-01-20T07:28:45.003Z,-5.84
2019-01-20T07:29:44.914Z,-5.84
2019-01-20T07:30:44.822Z,-5.86
2019-01-20T07:31:44.731Z,-5.90
2019-01-20T07:32:44.640Z,-5.79
2019-01-20T07:33:44.549Z,-5.81
2019-01-20T07:34:44.459Z,-5.72
2019-01-20T07:35:44.368Z,-5.73
2019-01-20T07:36:44.280Z,-5.79
2019-01-20T07:37:44.189Z,-5.81
2019-01-20T07:38:44.095Z,-5.75
2019-01-20T07:39:44.005Z,-5.83
2019-01-20T07:40:43.916Z,-5.86
2019-01-20T07:41:43.824Z,-5.84
2019-01-20T07:42:43.733Z,-5.84
2019-01-20T07:43:43.642Z,-5.76
2019-01-20T07:44:43.551Z,-5.87
2019-01-20T07:45:43.460Z,-5.71
2019-01-20T07:46:43.370Z,-5.75
2019-01-20T07:47:43.279Z,-5.68
2019-01-20T07:48:43.195Z,-5.66
2019-01-20T07:49:43.098Z,-5.69
2019-01-20T07:50:43.007Z,-5.58
2019-01-20T07:51:42.917Z,-5.66
2019-01-20T07:52:42.827Z,-5.60
2019-01-20T07:53:42.735Z,-5.65
2019-01-20T07:54:42.645Z,-5.43
2019-01-20T07:55:42.553Z,-5.57
2019-01-20T07:56:42.464Z,-5.40
2019-01-20T07:57:42.372Z,-5.47
2019-01-20T07:58:42.283Z,-5.43
2019-01-20T07:59:42.191Z,-5.42
2019-01-20T08:00:42.102Z,-5.37
2019-01-20T08:01:42.011Z,-5.50
2019-01-20T08:02:41.921Z,-5.37
2019-01-20T08:03:41.830Z,-5.39
2019-01-20T08:04:41.741Z,-5.34
2019-01-20T08:05:41.650Z,-5.36
2019-01-20T08:06:41.609Z,-5.34
2019-01-20T08:07:41.468Z,-5.40
2019-01-20T08:08:41.378Z,-5.36
2019-01-20T08:09:41.288Z,-5.47
2019-01-20T08:10:41.198Z,-5.42
2019-01-20T08:11:41.109Z,-5.48
2019-01-20T08:12:41.019Z,-5.48
2019-01-20T08:13:40.927Z,-5.33
2019-01-20T08:14:40.840Z,-5.29
2019-01-20T08:15:40.745Z,-5.33
2019-01-20T08:16:40.656Z,-5.14
2019-01-20T08:17:40.571Z,-5.14
2019-01-20T08:18:40.476Z,-5.08
2019-01-20T08:19:40.386Z,-5.14
2019-01-20T08:20:40.296Z,-5.10
2019-01-20T08:21:40.206Z,-5.04
2019-01-20T08:22:40.116Z,-5.00
2019-01-20T08:23:40.025Z,-4.96
2019-01-20T08:24:39.935Z,-4.92
2019-01-20T08:25:39.850Z,-4.89
2019-01-20T08:26:39.814Z,-4.86
2019-01-20T08:27:39.666Z,-4.82
2019-01-20T08:28:39.576Z,-4.90
2019-01-20T08:29:39.486Z,-4.81
2019-01-20T08:30:39.399Z,-4.82
2019-01-20T08:31:39.310Z,-4.64
2019-01-20T08:32:39.216Z,-4.61
2019-01-20T08:33:39.127Z,-4.63
2019-01-20T08:34:39.039Z,-4.60
2019-01-20T08:35:38.948Z,-4.60
2019-01-20T08:36:38.857Z,-4.61
2019-01-20T08:37:38.767Z,-4.51
2019-01-20T08:38:38.679Z,-4.60
2019-01-20T08:39:38.589Z,-4.54
2019-01-20T08:40:38.499Z,-4.49
2019-01-20T08:41:38.413Z,-4.49
2019-01-20T08:42:38.321Z,-4.49
2019-01-20T08:43:38.233Z,-4.40
2019-01-20T08:44:38.143Z,-4.40
2019-01-20T08:45:38.051Z,-4.36
2019-01-20T08:46:37.963Z,-4.35
2019-01-20T08:47:38.002Z,-4.33
2019-01-20T08:48:37.783Z,-4.26
2019-01-20T08:49:37.693Z,-4.25
2019-01-20T08:50:37.604Z,-4.25
2019-01-20T08:51:37.514Z,-4.15
2019-01-20T08:52:37.426Z,-4.10
2019-01-20T08:53:37.336Z,-3.98
2019-01-20T08:54:37.247Z,-3.98
2019-01-20T08:55:37.157Z,-3.89
2019-01-20T08:56:37.069Z,-3.83
2019-01-20T08:57:36.979Z,-3.71
2019-01-20T08:58:36.892Z,-3.60
2019-01-20T08:59:36.801Z,-3.34
2019-01-20T09:00:36.712Z,-3.20
2019-01-20T09:01:36.624Z,-2.95
2019-01-20T09:02:36.536Z,-2.68
2019-01-20T09:03:36.446Z,-2.17
2019-01-20T09:04:36.359Z,-1.76
2019-01-20T09:05:36.271Z,-1.60
2019-01-20T09:06:36.185Z,-1.30
2019-01-20T09:07:36.094Z,-1.26
2019-01-20T09:08:36.011Z,-1.16
2019-01-20T09:09:35.922Z,-1.05
2019-01-20T09:10:35.836Z,-1.27
2019-01-20T09:11:35.748Z,-1.13
2019-01-20T09:12:35.661Z,-1.48
2019-01-20T09:13:39.853Z,-1.47
2019-01-20T09:14:35.491Z,-1.24
2019-01-20T09:15:35.403Z,-1.08
2019-01-20T09:16:35.316Z,-1.08
2019-01-20T09:17:35.231Z,-0.76
2019-01-20T09:18:35.146Z,-0.59
2019-01-20T09:19:35.058Z,-0.62
2019-01-20T09:20:34.974Z,-0.46
2019-01-20T09:21:34.890Z,-0.37
2019-01-20T09:22:34.804Z,-0.41
2019-01-20T09:23:34.717Z,-0.54
2019-01-20T09:24:34.632Z,-0.40
2019-01-20T09:25:34.548Z,-0.43
2019-01-20T09:26:34.464Z,-0.61
2019-01-20T09:27:34.376Z,-1.08
2019-01-20T09:28:34.292Z,-1.29
2019-01-20T09:29:34.206Z,-1.26
2019-01-20T09:30:34.121Z,-1.26
2019-01-20T09:31:34.034Z,-1.11
2019-01-20T09:32:33.953Z,-0.84
2019-01-20T09:33:33.863Z,-0.37
2019-01-20T09:34:33.779Z,-0.32
2019-01-20T09:35:33.692Z,-0.44
2019-01-20T09:36:33.607Z,-0.84
2019-01-20T09:37:33.520Z,-0.91
2019-01-20T09:38:33.434Z,-1.58
2019-01-20T09:39:33.349Z,-1.86
2019-01-20T09:40:33.263Z,-1.80
2019-01-20T09:41:33.176Z,-1.56
2019-01-20T09:42:33.090Z,-1.30
2019-01-20T09:43:33.004Z,-0.66
2019-01-20T09:44:32.918Z,-0.17
2019-01-20T09:45:32.831Z,0.14
2019-01-20T09:46:32.746Z,0.43
2019-01-20T09:47:32.659Z,0.74
2019-01-20T09:48:32.573Z,0.45
2019-01-20T09:49:32.493Z,0.43
2019-01-20T09:50:32.403Z,0.45
2019-01-20T09:51:32.316Z,0.31
2019-01-20T09:52:32.231Z,0.09
2019-01-20T09:53:32.146Z,-0.02
2019-01-20T09:54:32.060Z,-0.11
2019-01-20T09:55:31.979Z,-0.35
2019-01-20T09:56:31.889Z,-0.46
2019-01-20T09:57:31.805Z,-0.59
2019-01-20T09:58:31.722Z,-0.71
2019-01-20T09:59:31.632Z,-0.62
2019-01-20T10:00:31.547Z,-0.46
2019-01-20T10:01:31.461Z,-0.15
2019-01-20T10:02:31.378Z,-0.04
2019-01-20T10:03:31.288Z,0.07
2019-01-20T10:04:31.203Z,0.31
2019-01-20T10:05:31.118Z,0.43
2019-01-20T10:06:31.035Z,0.57
2019-01-20T10:07:30.946Z,0.74
2019-01-20T10:08:30.861Z,0.65
2019-01-20T10:09:30.776Z,0.50
2019-01-20T10:10:30.696Z,0.29
2019-01-20T10:11:30.606Z,0.45
2019-01-20T10:12:30.520Z,0.46
2019-01-20T10:13:30.435Z,0.82
2019-01-20T10:14:30.350Z,0.77
2019-01-20T10:15:30.265Z,0.46
2019-01-20T10:16:30.182Z,0.17
2019-01-20T10:17:30.096Z,-0.04
2019-01-20T10:18:30.010Z,-0.04
2019-01-20T10:19:29.924Z,0.04
2019-01-20T10:20:29.839Z,-0.02
2019-01-20T10:21:29.755Z,0.04
2019-01-20T10:22:29.670Z,0.13
2019-01-20T10:23:29.583Z,0.25
2019-01-20T10:24:29.500Z,0.27
2019-01-20T10:25:29.412Z,0.31
2019-01-20T10:26:29.328Z,0.21
2019-01-20T10:27:29.243Z,-0.02
2019-01-20T10:28:29.159Z,0.04
2019-01-20T10:29:29.072Z,-0.10
2019-01-20T10:30:28.987Z,-0.01
2019-01-20T10:31:28.901Z,0.11
2019-01-20T10:32:28.816Z,0.16
2019-01-20T10:33:28.733Z,0.07
2019-01-20T10:34:28.645Z,0.21
2019-01-20T10:35:28.558Z,0.17
2019-01-20T10:36:28.472Z,0.13
2019-01-20T10:37:28.386Z,0.16
2019-01-20T10:38:28.301Z,0.36
2019-01-20T10:39:28.215Z,0.68
2019-01-20T10:40:28.128Z,0.98
2019-01-20T10:41:28.043Z,1.20
2019-01-20T10:42:27.957Z,1.50
2019-01-20T10:43:27.871Z,1.56
2019-01-20T10:44:27.785Z,1.68
2019-01-20T10:45:27.702Z,1.72
2019-01-20T10:46:27.615Z,1.64
2019-01-20T10:47:27.529Z,1.69
2019-01-20T10:48:27.444Z,1.74
2019-01-20T10:49:27.358Z,1.69
2019-01-20T10:50:27.277Z,1.66
2019-01-20T10:51:27.189Z,1.77
2019-01-20T10:52:27.105Z,2.16
2019-01-20T10:53:27.022Z,2.68
2019-01-20T10:54:26.937Z,3.03
2019-01-20T10:55:26.852Z,3.39
2019-01-20T10:56:26.769Z,3.54
2019-01-20T10:57:26.685Z,3.83
2019-01-20T10:58:26.703Z,3.68
2019-01-20T10:59:26.520Z,3.84
2019-01-20T11:00:26.436Z,3.53
2019-01-20T11:01:26.356Z,3.21
2019-01-20T11:02:26.273Z,3.19
2019-01-20T11:03:26.191Z,3.07
2019-01-20T11:04:26.107Z,3.14
2019-01-20T11:05:30.345Z,2.84
2019-01-20T11:06:25.944Z,2.74
2019-01-20T11:07:25.862Z,2.53
2019-01-20T11:08:25.804Z,2.71
2019-01-20T11:09:25.695Z,2.70
2019-01-20T11:10:25.613Z,2.91
2019-01-20T11:11:25.530Z,2.89
2019-01-20T11:12:25.452Z,2.52
2019-01-20T11:13:25.408Z,2.10
2019-01-20T11:14:25.283Z,1.99
2019-01-20T11:15:25.205Z,2.05
2019-01-20T11:16:25.117Z,2.30
2019-01-20T11:17:25.035Z,2.50
2019-01-20T11:18:24.952Z,2.49
2019-01-20T11:19:24.871Z,2.85
2019-01-20T11:20:24.786Z,3.07
2019-01-20T11:21:24.705Z,3.14
2019-01-20T11:22:24.621Z,3.11
2019-01-20T11:23:24.538Z,3.47
2019-01-20T11:24:24.456Z,3.59
2019-01-20T11:25:24.374Z,3.29
2019-01-20T11:26:24.292Z,3.37
2019-01-20T11:27:24.211Z,3.27
2019-01-20T11:28:24.490Z,3.11
2019-01-20T11:29:24.046Z,3.13
2019-01-20T11:30:23.963Z,2.98
2019-01-20T11:31:23.879Z,2.56
2019-01-20T11:32:23.798Z,2.32
2019-01-20T11:33:23.715Z,2.42
2019-01-20T11:34:23.634Z,2.48
2019-01-20T11:35:23.551Z,2.38
2019-01-20T11:36:23.469Z,2.41
2019-01-20T11:37:23.386Z,2.84
2019-01-20T11:38:23.306Z,3.16
2019-01-20T11:39:23.221Z,3.86
2019-01-20T11:40:23.487Z,3.92
2019-01-20T11:41:23.056Z,4.07
2019-01-20T11:42:22.979Z,4.20
2019-01-20T11:43:22.892Z,4.16
2019-01-20T11:44:22.814Z,3.94
2019-01-20T11:45:22.733Z,3.68
2019-01-20T11:46:22.648Z,3.84
2019-01-20T11:47:22.566Z,4.01
2019-01-20T11:48:22.484Z,4.10
2019-01-20T11:49:22.403Z,4.30
2019-01-20T11:50:22.372Z,5.05
2019-01-20T11:51:22.241Z,5.53
2019-01-20T11:52:22.161Z,6.06
2019-01-20T11:53:22.081Z,5.93
2019-01-20T11:54:22.000Z,5.90
2019-01-20T11:55:21.920Z,6.13
2019-01-20T11:56:21.841Z,6.55
2019-01-20T11:57:21.761Z,6.17
2019-01-20T11:58:21.682Z,5.54
2019-01-20T11:59:21.602Z,5.65
2019-01-20T12:00:21.525Z,5.92
2019-01-20T12:01:21.446Z,6.22
2019-01-20T12:02:22.496Z,6.47
2019-01-20T12:03:21.288Z,6.66
2019-01-20T12:04:21.210Z,6.68
2019-01-20T12:05:21.131Z,6.44
2019-01-20T12:06:21.057Z,5.90
2019-01-20T12:07:20.978Z,5.85
2019-01-20T12:08:20.898Z,5.36
2019-01-20T12:09:20.821Z,5.35
2019-01-20T12:10:20.763Z,5.63
2019-01-20T12:11:20.665Z,5.50
2019-01-20T12:12:20.590Z,5.52
2019-01-20T12:13:20.509Z,5.29
2019-01-20T12:14:24.244Z,4.96
2019-01-20T12:15:20.355Z,4.16
2019-01-20T12:16:20.276Z,3.74
2019-01-20T12:17:20.201Z,3.56
2019-01-20T12:18:20.121Z,3.16
2019-01-20T12:19:20.041Z,2.84
2019-01-20T12:20:19.967Z,3.16
2019-01-20T12:21:19.885Z,3.32
2019-01-20T12:22:19.809Z,3.44
2019-01-20T12:23:19.733Z,3.10
2019-01-20T12:24:19.647Z,3.41
2019-01-20T12:25:19.568Z,3.57
2019-01-20T12:26:19.490Z,4.00
2019-01-20T12:27:19.407Z,4.34
2019-01-20T12:28:19.428Z,4.34
2019-01-20T12:29:19.249Z,4.15
2019-01-20T12:30:19.170Z,4.56
2019-01-20T12:31:19.088Z,4.88
2019-01-20T12:32:19.010Z,4.55
2019-01-20T12:33:18.929Z,4.52
2019-01-20T12:34:18.851Z,4.26
2019-01-20T12:35:18.772Z,4.11
2019-01-20T12:36:18.691Z,4.04
2019-01-20T12:37:18.612Z,3.82
2019-01-20T12:38:18.533Z,3.62
2019-01-20T12:39:18.451Z,3.48
2019-01-20T12:40:18.372Z,3.28
2019-01-20T12:41:18.292Z,3.39
2019-01-20T12:42:18.215Z,3.46
2019-01-20T12:43:18.132Z,3.69
2019-01-20T12:44:18.052Z,3.87
2019-01-20T12:45:17.972Z,3.71
2019-01-20T12:46:17.895Z,3.39
2019-01-20T12:47:17.811Z,3.62
2019-01-20T12:48:17.731Z,3.41
2019-01-20T12:49:17.654Z,3.37
2019-01-20T12:50:17.591Z,3.29
2019-01-20T12:51:17.489Z,3.61
2019-01-20T12:52:17.409Z,3.87
2019-01-20T12:53:17.329Z,3.90
2019-01-20T12:54:17.248Z,3.86
2019-01-20T12:55:17.170Z,4.02
2019-01-20T12:56:17.087Z,4.29
2019-01-20T12:57:17.005Z,4.32